createdAt,value
2017-05-21T00:00:38.056Z,22.6
2017-05-21T00:01:48.010Z,22.62
2017-05-21T00:02:58.276Z,22.62
2017-05-21T00:04:08.539Z,22.57
2017-05-21T00:05:18.494Z,22.58
2017-05-21T00:06:28.442Z,22.6
2017-05-21T00:07:38.082Z,22.61
2017-05-21T00:08:47.723Z,22.55
2017-05-21T00:09:57.366Z,22.52
2017-05-21T00:11:07.659Z,22.58
2017-05-21T00:12:16.979Z,22.6
2017-05-21T00:13:26.925Z,22.52
2017-05-21T00:14:36.918Z,22.57
2017-05-21T00:15:46.873Z,22.58
2017-05-21T00:16:56.822Z,22.49
2017-05-21T00:18:06.468Z,22.47
2017-05-21T00:19:16.743Z,22.49
2017-05-21T00:20:26.387Z,22.52
2017-05-21T00:21:35.716Z,22.54
2017-05-21T00:22:45.668Z,22.51
2017-05-21T00:23:55.944Z,22.54
2017-05-21T00:25:05.903Z,22.51
2017-05-21T00:26:15.855Z,22.51
2017-05-21T00:27:26.123Z,22.58
2017-05-21T00:28:36.439Z,22.51
2017-05-21T00:29:46.722Z,22.46
2017-05-21T00:30:56.994Z,22.55
2017-05-21T00:32:06.635Z,22.51
2017-05-21T00:33:15.956Z,22.47
2017-05-21T00:34:26.224Z,22.51
2017-05-21T00:35:36.497Z,22.51
2017-05-21T00:36:46.767Z,22.57
2017-05-21T00:37:56.412Z,22.51
2017-05-21T00:39:06.050Z,22.52
2017-05-21T00:40:15.996Z,22.49
2017-05-21T00:41:26.269Z,22.47
2017-05-21T00:42:36.224Z,22.46
2017-05-21T00:43:46.182Z,22.51
2017-05-21T00:44:56.450Z,22.52
2017-05-21T00:46:06.408Z,22.46
2017-05-21T00:47:16.359Z,22.55
2017-05-21T00:48:26.317Z,22.45
2017-05-21T00:49:36.275Z,22.51
2017-05-21T00:50:46.229Z,22.55
2017-05-21T00:51:55.955Z,22.54
2017-05-21T00:53:06.219Z,22.54
2017-05-21T00:54:16.175Z,22.49
2017-05-21T00:55:25.871Z,22.51
2017-05-21T00:56:35.511Z,22.51
2017-05-21T00:57:45.465Z,22.55
2017-05-21T00:58:55.735Z,22.47
2017-05-21T01:00:05.376Z,22.51
2017-05-21T01:01:15.326Z,22.49
2017-05-21T01:02:24.649Z,22.42
2017-05-21T01:03:34.283Z,22.52
2017-05-21T01:04:44.557Z,22.47
2017-05-21T01:05:54.825Z,22.4
2017-05-21T01:07:04.458Z,22.49
2017-05-21T01:08:14.743Z,22.47
2017-05-21T01:09:25.026Z,22.49
2017-05-21T01:10:35.291Z,22.52
2017-05-21T01:11:45.570Z,22.51
2017-05-21T01:12:55.839Z,22.47
2017-05-21T01:14:06.165Z,22.39
2017-05-21T01:15:15.799Z,22.36
2017-05-21T01:16:25.749Z,22.36
2017-05-21T01:17:35.069Z,22.33
2017-05-21T01:18:44.405Z,22.43
2017-05-21T01:19:54.047Z,22.42
2017-05-21T01:21:04.314Z,22.35
2017-05-21T01:22:14.267Z,22.39
2017-05-21T01:23:24.229Z,22.35
2017-05-21T01:24:34.498Z,22.51
2017-05-21T01:25:44.779Z,22.43
2017-05-21T01:26:55.047Z,22.4
2017-05-21T01:28:05.309Z,22.35
2017-05-21T01:29:15.262Z,22.45
2017-05-21T01:30:25.215Z,22.4
2017-05-21T01:31:35.171Z,22.31
2017-05-21T01:32:45.455Z,22.35
2017-05-21T01:33:55.725Z,22.33
2017-05-21T01:35:05.365Z,22.39
2017-05-21T01:36:15.001Z,22.4
2017-05-21T01:37:24.951Z,22.33
2017-05-21T01:38:34.912Z,22.42
2017-05-21T01:39:44.866Z,22.4
2017-05-21T01:40:55.137Z,22.42
2017-05-21T01:42:05.404Z,22.42
2017-05-21T01:43:15.041Z,22.42
2017-05-21T01:44:24.999Z,22.39
2017-05-21T01:45:34.960Z,22.37
2017-05-21T01:46:44.288Z,22.36
2017-05-21T01:47:54.257Z,22.4
2017-05-21T01:49:04.592Z,22.4
2017-05-21T01:50:13.919Z,22.37
2017-05-21T01:51:23.602Z,22.39
2017-05-21T01:52:33.868Z,22.4
2017-05-21T01:53:43.523Z,22.42
2017-05-21T01:54:53.475Z,22.4
2017-05-21T01:56:03.822Z,22.4
2017-05-21T01:57:12.879Z,22.39
2017-05-21T01:58:22.830Z,22.37
2017-05-21T01:59:32.468Z,22.39
2017-05-21T02:00:42.737Z,22.4
2017-05-21T02:01:52.368Z,22.4
2017-05-21T02:03:02.326Z,22.37
2017-05-21T02:04:11.704Z,22.43
2017-05-21T02:05:21.337Z,22.31
2017-05-21T02:06:30.976Z,22.35
2017-05-21T02:07:40.621Z,22.37
2017-05-21T02:08:50.880Z,22.36
2017-05-21T02:10:01.155Z,22.42
2017-05-21T02:11:11.112Z,22.42
2017-05-21T02:12:21.384Z,22.37
2017-05-21T02:13:31.654Z,22.31
2017-05-21T02:14:41.294Z,22.49
2017-05-21T02:15:51.295Z,22.36
2017-05-21T02:17:01.570Z,22.37
2017-05-21T02:18:11.212Z,22.35
2017-05-21T02:19:21.483Z,22.39
2017-05-21T02:20:31.446Z,22.33
2017-05-21T02:21:41.393Z,22.4
2017-05-21T02:22:51.353Z,22.43
2017-05-21T02:24:01.621Z,22.31
2017-05-21T02:25:11.256Z,22.39
2017-05-21T02:26:20.574Z,22.4
2017-05-21T02:27:30.215Z,22.36
2017-05-21T02:28:39.539Z,22.37
2017-05-21T02:29:49.181Z,22.39
2017-05-21T02:30:59.142Z,22.42
2017-05-21T02:32:09.089Z,22.36
2017-05-21T02:33:19.040Z,22.35
2017-05-21T02:34:28.994Z,22.35
2017-05-21T02:35:38.316Z,22.36
2017-05-21T02:36:48.581Z,22.33
2017-05-21T02:37:58.532Z,22.37
2017-05-21T02:39:08.806Z,22.37
2017-05-21T02:40:18.796Z,22.43
2017-05-21T02:41:28.750Z,22.42
2017-05-21T02:42:38.379Z,22.35
2017-05-21T02:43:48.649Z,22.36
2017-05-21T02:44:58.291Z,22.36
2017-05-21T02:46:08.555Z,22.36
2017-05-21T02:47:18.826Z,22.37
2017-05-21T02:48:28.789Z,22.39
2017-05-21T02:49:38.423Z,22.39
2017-05-21T02:50:48.378Z,22.35
2017-05-21T02:51:58.328Z,22.39
2017-05-21T02:53:08.599Z,22.39
2017-05-21T02:54:17.604Z,22.35
2017-05-21T02:55:27.565Z,22.35
2017-05-21T02:56:37.829Z,22.35
2017-05-21T02:57:47.468Z,22.4
2017-05-21T02:58:57.431Z,22.45
2017-05-21T03:00:07.708Z,22.36
2017-05-21T03:01:17.345Z,22.3
2017-05-21T03:02:26.672Z,22.4
2017-05-21T03:03:36.624Z,22.39
2017-05-21T03:04:46.279Z,22.31
2017-05-21T03:05:56.543Z,22.37
2017-05-21T03:07:06.503Z,22.36
2017-05-21T03:08:15.827Z,22.39
2017-05-21T03:09:25.780Z,22.4
2017-05-21T03:10:35.426Z,22.35
2017-05-21T03:11:45.380Z,22.36
2017-05-21T03:12:55.333Z,22.35
2017-05-21T03:14:04.971Z,22.37
2017-05-21T03:15:14.918Z,22.35
2017-05-21T03:16:24.562Z,22.35
2017-05-21T03:17:34.832Z,22.33
2017-05-21T03:18:44.836Z,22.35
2017-05-21T03:19:55.110Z,22.35
2017-05-21T03:21:05.054Z,22.4
2017-05-21T03:22:14.686Z,22.36
2017-05-21T03:23:24.010Z,22.37
2017-05-21T03:24:34.305Z,22.37
2017-05-21T03:25:44.265Z,22.46
2017-05-21T03:26:53.902Z,22.33
2017-05-21T03:28:04.180Z,22.37
2017-05-21T03:29:13.501Z,22.36
2017-05-21T03:30:23.773Z,22.4
2017-05-21T03:31:33.775Z,22.31
2017-05-21T03:32:43.421Z,22.36
2017-05-21T03:33:53.385Z,22.33
2017-05-21T03:35:03.346Z,22.3
2017-05-21T03:36:12.981Z,22.37
2017-05-21T03:37:22.311Z,22.31
2017-05-21T03:38:32.268Z,22.31
2017-05-21T03:39:41.273Z,22.37
2017-05-21T03:40:51.539Z,22.4
2017-05-21T03:42:01.816Z,22.28
2017-05-21T03:43:11.772Z,22.33
2017-05-21T03:44:21.097Z,22.39
2017-05-21T03:45:30.420Z,22.39
2017-05-21T03:46:40.060Z,22.43
2017-05-21T03:47:50.332Z,22.46
2017-05-21T03:49:00.603Z,22.27
2017-05-21T03:50:10.561Z,22.35
2017-05-21T03:51:20.827Z,22.25
2017-05-21T03:52:30.780Z,22.35
2017-05-21T03:53:40.103Z,22.36
2017-05-21T03:54:50.384Z,22.35
2017-05-21T03:55:59.714Z,22.33
2017-05-21T03:57:09.987Z,22.35
2017-05-21T03:58:19.315Z,22.33
2017-05-21T03:59:29.269Z,22.39
2017-05-21T04:00:39.235Z,22.39
2017-05-21T04:01:48.936Z,22.42
2017-05-21T04:02:59.213Z,22.31
2017-05-21T04:04:08.860Z,22.28
2017-05-21T04:05:18.495Z,22.36
2017-05-21T04:06:28.134Z,22.36
2017-05-21T04:07:37.464Z,22.35
2017-05-21T04:08:47.418Z,22.31
2017-05-21T04:09:57.695Z,22.46
2017-05-21T04:11:07.336Z,22.35
2017-05-21T04:12:16.971Z,22.3
2017-05-21T04:13:26.613Z,22.3
2017-05-21T04:14:36.257Z,22.31
2017-05-21T04:15:46.535Z,22.33
2017-05-21T04:16:56.170Z,22.3
2017-05-21T04:18:06.434Z,22.33
2017-05-21T04:19:15.764Z,22.31
2017-05-21T04:20:26.045Z,22.42
2017-05-21T04:21:36.001Z,22.37
2017-05-21T04:22:45.961Z,22.45
2017-05-21T04:23:55.919Z,22.39
2017-05-21T04:25:05.876Z,22.37
2017-05-21T04:26:15.832Z,22.37
2017-05-21T04:27:26.098Z,22.35
2017-05-21T04:28:35.423Z,22.39
2017-05-21T04:29:45.134Z,22.33
2017-05-21T04:30:54.778Z,22.36
2017-05-21T04:32:04.412Z,22.33
2017-05-21T04:33:14.361Z,22.36
2017-05-21T04:34:24.321Z,22.35
2017-05-21T04:35:34.277Z,22.39
2017-05-21T04:36:43.596Z,22.3
2017-05-21T04:37:52.974Z,22.33
2017-05-21T04:39:03.253Z,22.28
2017-05-21T04:40:12.265Z,22.31
2017-05-21T04:41:22.234Z,22.39
2017-05-21T04:42:32.189Z,22.37
2017-05-21T04:43:42.141Z,22.39
2017-05-21T04:44:52.412Z,22.36
2017-05-21T04:46:02.367Z,22.35
2017-05-21T04:47:12.012Z,22.36
2017-05-21T04:48:21.962Z,22.31
2017-05-21T04:49:31.921Z,22.33
2017-05-21T04:50:41.564Z,22.45
2017-05-21T04:51:51.516Z,22.39
2017-05-21T04:53:01.471Z,22.36
2017-05-21T04:54:11.432Z,22.35
2017-05-21T04:55:21.071Z,22.35
2017-05-21T04:56:30.705Z,22.35
2017-05-21T04:57:40.719Z,22.35
2017-05-21T04:58:50.672Z,22.37
2017-05-21T05:00:00.944Z,22.36
2017-05-21T05:01:11.208Z,22.35
2017-05-21T05:02:21.156Z,22.28
2017-05-21T05:03:31.420Z,22.28
2017-05-21T05:04:41.060Z,22.35
2017-05-21T05:05:51.331Z,22.27
2017-05-21T05:07:01.673Z,22.35
2017-05-21T05:08:11.937Z,22.36
2017-05-21T05:09:21.575Z,22.35
2017-05-21T05:10:31.528Z,22.35
2017-05-21T05:11:41.795Z,22.39
2017-05-21T05:12:51.434Z,22.35
2017-05-21T05:14:01.391Z,22.35
2017-05-21T05:15:11.657Z,22.31
2017-05-21T05:16:21.605Z,22.37
2017-05-21T05:17:31.247Z,22.37
2017-05-21T05:18:41.205Z,22.39
2017-05-21T05:19:51.150Z,22.35
2017-05-21T05:21:01.416Z,22.35
2017-05-21T05:22:11.698Z,22.36
2017-05-21T05:23:21.977Z,22.4
2017-05-21T05:24:31.927Z,22.42
2017-05-21T05:25:41.880Z,22.33
2017-05-21T05:26:51.520Z,22.36
2017-05-21T05:28:01.794Z,22.3
2017-05-21T05:29:11.746Z,22.36
2017-05-21T05:30:21.378Z,22.31
2017-05-21T05:31:30.384Z,22.39
2017-05-21T05:32:40.647Z,22.36
2017-05-21T05:33:50.912Z,22.36
2017-05-21T05:35:00.866Z,22.31
2017-05-21T05:36:10.821Z,22.3
2017-05-21T05:37:20.473Z,22.35
2017-05-21T05:38:30.421Z,22.37
2017-05-21T05:39:40.063Z,22.45
2017-05-21T05:40:50.006Z,22.35
2017-05-21T05:42:00.274Z,22.36
2017-05-21T05:43:09.598Z,22.35
2017-05-21T05:44:19.873Z,22.31
2017-05-21T05:45:29.831Z,22.42
2017-05-21T05:46:39.484Z,22.35
2017-05-21T05:47:49.443Z,22.35
2017-05-21T05:48:59.714Z,22.36
2017-05-21T05:50:09.980Z,22.42
2017-05-21T05:51:19.936Z,22.35
2017-05-21T05:52:29.577Z,22.36
2017-05-21T05:53:39.530Z,22.36
2017-05-21T05:54:49.490Z,22.36
2017-05-21T05:55:59.494Z,22.3
2017-05-21T05:57:09.446Z,22.39
2017-05-21T05:58:18.766Z,22.42
2017-05-21T05:59:28.720Z,22.35
2017-05-21T06:00:38.994Z,22.35
2017-05-21T06:01:48.332Z,22.3
2017-05-21T06:02:57.660Z,22.35
2017-05-21T06:04:07.936Z,22.37
2017-05-21T06:05:17.582Z,22.35
2017-05-21T06:06:27.223Z,22.33
2017-05-21T06:07:37.501Z,22.31
2017-05-21T06:08:47.453Z,22.35
2017-05-21T06:09:57.720Z,22.37
2017-05-21T06:11:07.359Z,22.39
2017-05-21T06:12:17.314Z,22.37
2017-05-21T06:13:27.596Z,22.31
2017-05-21T06:14:37.309Z,22.35
2017-05-21T06:15:47.260Z,22.42
2017-05-21T06:16:57.519Z,22.35
2017-05-21T06:18:07.468Z,22.39
2017-05-21T06:19:17.426Z,22.4
2017-05-21T06:20:27.066Z,22.39
2017-05-21T06:21:37.026Z,22.39
2017-05-21T06:22:46.981Z,22.31
2017-05-21T06:23:56.944Z,22.37
2017-05-21T06:25:06.902Z,22.33
2017-05-21T06:26:16.545Z,22.55
2017-05-21T06:27:26.808Z,22.46
2017-05-21T06:28:37.083Z,22.46
2017-05-21T06:29:47.037Z,22.49
2017-05-21T06:30:56.990Z,22.47
2017-05-21T06:32:06.943Z,22.52
2017-05-21T06:33:16.894Z,22.52
2017-05-21T06:34:27.172Z,22.52
2017-05-21T06:35:37.436Z,22.46
2017-05-21T06:36:47.390Z,22.54
2017-05-21T06:37:57.021Z,22.55
2017-05-21T06:39:06.976Z,22.6
2017-05-21T06:40:17.241Z,22.62
2017-05-21T06:41:27.191Z,22.62
2017-05-21T06:42:37.174Z,22.57
2017-05-21T06:43:47.143Z,22.55
2017-05-21T06:44:56.472Z,22.67
2017-05-21T06:46:06.746Z,22.68
2017-05-21T06:47:16.391Z,22.52
2017-05-21T06:48:26.343Z,22.58
2017-05-21T06:49:36.291Z,22.67
2017-05-21T06:50:46.247Z,22.6
2017-05-21T06:51:56.199Z,22.65
2017-05-21T06:53:06.466Z,22.62
2017-05-21T06:54:16.422Z,22.61
2017-05-21T06:55:26.687Z,22.64
2017-05-21T06:56:36.638Z,22.64
2017-05-21T06:57:46.907Z,22.6
2017-05-21T06:58:56.558Z,22.67
2017-05-21T07:00:06.515Z,22.65
2017-05-21T07:01:16.466Z,22.67
2017-05-21T07:02:26.102Z,22.67
2017-05-21T07:03:35.426Z,22.58
2017-05-21T07:04:45.069Z,22.52
2017-05-21T07:05:54.709Z,22.65
2017-05-21T07:07:04.661Z,22.67
2017-05-21T07:08:14.611Z,22.72
2017-05-21T07:09:24.568Z,22.75
2017-05-21T07:10:34.212Z,22.72
2017-05-21T07:11:43.542Z,22.72
2017-05-21T07:12:53.502Z,22.61
2017-05-21T07:14:03.458Z,22.37
2017-05-21T07:15:13.092Z,22.43
2017-05-21T07:16:22.727Z,22.33
2017-05-21T07:17:32.676Z,22.35
2017-05-21T07:18:42.943Z,22.33
2017-05-21T07:19:52.582Z,22.28
2017-05-21T07:21:02.536Z,22.3
2017-05-21T07:22:12.802Z,22.28
2017-05-21T07:23:22.750Z,22.25
2017-05-21T07:24:32.386Z,22.28
2017-05-21T07:25:42.337Z,22.31
2017-05-21T07:26:51.978Z,22.33
2017-05-21T07:28:01.928Z,22.33
2017-05-21T07:29:11.570Z,22.31
2017-05-21T07:30:21.527Z,22.36
2017-05-21T07:31:31.162Z,22.4
2017-05-21T07:32:40.803Z,22.35
2017-05-21T07:33:50.761Z,22.4
2017-05-21T07:35:00.717Z,22.4
2017-05-21T07:36:10.667Z,22.28
2017-05-21T07:37:20.937Z,22.37
2017-05-21T07:38:30.893Z,22.31
2017-05-21T07:39:40.844Z,22.27
2017-05-21T07:40:50.495Z,22.31
2017-05-21T07:42:00.129Z,22.39
2017-05-21T07:43:10.078Z,22.37
2017-05-21T07:44:19.717Z,22.31
2017-05-21T07:45:29.985Z,22.36
2017-05-21T07:46:39.939Z,22.14
2017-05-21T07:47:49.895Z,22.15
2017-05-21T07:48:59.215Z,22.14
2017-05-21T07:50:08.538Z,22.22
2017-05-21T07:51:18.174Z,22.3
2017-05-21T07:52:28.123Z,22.33
2017-05-21T07:53:38.383Z,22.33
2017-05-21T07:54:48.336Z,22.31
2017-05-21T07:55:57.659Z,22.35
2017-05-21T07:57:07.297Z,22.28
2017-05-21T07:58:17.250Z,22.31
2017-05-21T07:59:27.520Z,22.31
2017-05-21T08:00:37.476Z,22.39
2017-05-21T08:01:47.478Z,22.35
2017-05-21T08:02:57.756Z,22.36
2017-05-21T08:04:07.397Z,22.37
2017-05-21T08:05:17.352Z,22.35
2017-05-21T08:06:27.300Z,22.36
2017-05-21T08:07:36.935Z,22.36
2017-05-21T08:08:47.266Z,22.3
2017-05-21T08:09:56.900Z,22.35
2017-05-21T08:11:06.851Z,22.35
2017-05-21T08:12:17.127Z,22.36
2017-05-21T08:13:26.768Z,22.33
2017-05-21T08:14:36.730Z,22.3
2017-05-21T08:15:46.998Z,22.4
2017-05-21T08:16:56.633Z,22.37
2017-05-21T08:18:06.899Z,22.37
2017-05-21T08:19:16.857Z,22.36
2017-05-21T08:20:27.138Z,22.36
2017-05-21T08:21:36.775Z,22.42
2017-05-21T08:22:46.409Z,22.39
2017-05-21T08:23:56.676Z,22.37
2017-05-21T08:25:06.999Z,22.45
2017-05-21T08:26:16.634Z,22.39
2017-05-21T08:27:25.951Z,22.42
2017-05-21T08:28:35.585Z,22.33
2017-05-21T08:29:45.544Z,22.45
2017-05-21T08:30:55.500Z,22.4
2017-05-21T08:32:05.449Z,22.33
2017-05-21T08:33:15.407Z,22.36
2017-05-21T08:34:25.674Z,22.35
2017-05-21T08:35:35.022Z,22.3
2017-05-21T08:36:44.985Z,22.28
2017-05-21T08:37:54.640Z,22.33
2017-05-21T08:39:04.908Z,22.33
2017-05-21T08:40:14.864Z,22.37
2017-05-21T08:41:24.813Z,22.35
2017-05-21T08:42:34.457Z,22.21
2017-05-21T08:43:44.729Z,22.33
2017-05-21T08:44:54.682Z,22.3
2017-05-21T08:46:04.637Z,22.37
2017-05-21T08:47:14.591Z,22.35
2017-05-21T08:48:24.858Z,22.31
2017-05-21T08:49:34.497Z,22.4
2017-05-21T08:50:44.769Z,22.37
2017-05-21T08:51:54.405Z,22.46
2017-05-21T08:53:04.357Z,22.55
2017-05-21T08:54:14.307Z,22.47
2017-05-21T08:55:23.956Z,22.42
2017-05-21T08:56:33.904Z,22.4
2017-05-21T08:57:43.857Z,22.43
2017-05-21T08:58:53.500Z,22.42
2017-05-21T09:00:03.138Z,22.33
2017-05-21T09:01:12.493Z,22.37
2017-05-21T09:02:22.759Z,22.3
2017-05-21T09:03:32.082Z,22.3
2017-05-21T09:04:41.726Z,22.31
2017-05-21T09:05:51.673Z,22.36
2017-05-21T09:07:01.618Z,22.36
2017-05-21T09:08:11.886Z,22.31
2017-05-21T09:09:22.164Z,22.45
2017-05-21T09:10:31.504Z,22.4
2017-05-21T09:11:41.765Z,22.43
2017-05-21T09:12:51.718Z,22.51
2017-05-21T09:14:01.357Z,22.49
2017-05-21T09:15:11.629Z,22.35
2017-05-21T09:16:21.891Z,22.47
2017-05-21T09:17:31.527Z,22.36
2017-05-21T09:18:41.168Z,22.36
2017-05-21T09:19:51.159Z,22.43
2017-05-21T09:21:00.797Z,22.36
2017-05-21T09:22:10.745Z,22.33
2017-05-21T09:23:20.700Z,22.28
2017-05-21T09:24:30.647Z,22.31
2017-05-21T09:25:40.285Z,22.35
2017-05-21T09:26:49.294Z,22.43
2017-05-21T09:27:59.250Z,22.49
2017-05-21T09:29:09.519Z,22.49
2017-05-21T09:30:19.475Z,22.68
2017-05-21T09:31:29.429Z,22.57
2017-05-21T09:32:39.072Z,22.64
2017-05-21T09:33:49.021Z,22.62
2017-05-21T09:34:58.977Z,22.57
2017-05-21T09:36:08.923Z,22.73
2017-05-21T09:37:19.196Z,22.73
2017-05-21T09:38:28.206Z,22.82
2017-05-21T09:39:37.534Z,22.82
2017-05-21T09:40:46.858Z,22.72
2017-05-21T09:41:56.487Z,22.75
2017-05-21T09:43:06.451Z,22.76
2017-05-21T09:44:16.094Z,22.73
2017-05-21T09:45:26.052Z,22.76
2017-05-21T09:46:35.698Z,22.7
2017-05-21T09:47:45.019Z,22.8
2017-05-21T09:48:54.969Z,22.68
2017-05-21T09:50:04.916Z,22.68
2017-05-21T09:51:14.858Z,22.72
2017-05-21T09:52:24.822Z,22.72
2017-05-21T09:53:34.457Z,22.68
2017-05-21T09:54:44.097Z,22.79
2017-05-21T09:55:54.055Z,22.72
2017-05-21T09:57:03.696Z,22.73
2017-05-21T09:58:13.966Z,22.72
2017-05-21T09:59:23.292Z,22.72
2017-05-21T10:00:33.566Z,22.75
2017-05-21T10:01:43.844Z,22.79
2017-05-21T10:02:53.478Z,22.77
2017-05-21T10:04:03.426Z,22.8
2017-05-21T10:05:13.067Z,22.82
2017-05-21T10:06:22.704Z,22.82
2017-05-21T10:07:32.026Z,22.83
2017-05-21T10:08:41.979Z,22.86
2017-05-21T10:09:51.620Z,22.9
2017-05-21T10:11:01.260Z,22.92
2017-05-21T10:12:11.208Z,22.88
2017-05-21T10:13:21.167Z,22.98
2017-05-21T10:14:31.437Z,22.95
2017-05-21T10:15:41.391Z,22.9
2017-05-21T10:16:50.400Z,22.92
2017-05-21T10:18:00.363Z,22.95
2017-05-21T10:19:10.002Z,22.9
2017-05-21T10:20:19.653Z,22.98
2017-05-21T10:21:29.920Z,22.94
2017-05-21T10:22:39.866Z,22.92
2017-05-21T10:23:49.515Z,22.95
2017-05-21T10:24:59.163Z,22.97
2017-05-21T10:26:09.120Z,23.01
2017-05-21T10:27:18.756Z,22.97
2017-05-21T10:28:28.721Z,23.02
2017-05-21T10:29:38.990Z,22.95
2017-05-21T10:30:48.625Z,22.94
2017-05-21T10:31:57.947Z,22.95
2017-05-21T10:33:07.893Z,23
2017-05-21T10:34:18.163Z,22.91
2017-05-21T10:35:27.818Z,23
2017-05-21T10:36:37.776Z,22.92
2017-05-21T10:37:48.047Z,22.88
2017-05-21T10:38:58.007Z,22.83
2017-05-21T10:40:07.334Z,22.68
2017-05-21T10:41:17.599Z,22.49
2017-05-21T10:42:27.237Z,22.51
2017-05-21T10:43:36.877Z,22.47
2017-05-21T10:44:46.833Z,22.6
2017-05-21T10:45:56.787Z,22.6
2017-05-21T10:47:06.736Z,22.67
2017-05-21T10:48:17.001Z,22.67
2017-05-21T10:49:27.267Z,22.73
2017-05-21T10:50:36.903Z,22.7
2017-05-21T10:51:46.851Z,22.76
2017-05-21T10:52:57.115Z,22.8
2017-05-21T10:54:06.758Z,22.86
2017-05-21T10:55:16.714Z,22.85
2017-05-21T10:56:26.975Z,22.91
2017-05-21T10:57:36.937Z,22.9
2017-05-21T10:58:46.890Z,22.95
2017-05-21T10:59:56.525Z,22.92
2017-05-21T11:01:06.789Z,22.92
2017-05-21T11:02:16.744Z,23
2017-05-21T11:03:26.070Z,22.97
2017-05-21T11:04:35.710Z,22.98
2017-05-21T11:05:45.974Z,23
2017-05-21T11:06:55.609Z,22.98
2017-05-21T11:08:05.552Z,22.97
2017-05-21T11:09:15.831Z,22.95
2017-05-21T11:10:26.100Z,22.92
2017-05-21T11:11:36.048Z,22.94
2017-05-21T11:12:46.311Z,22.94
2017-05-21T11:13:55.947Z,22.98
2017-05-21T11:15:06.217Z,22.88
2017-05-21T11:16:16.482Z,22.9
2017-05-21T11:17:26.118Z,22.95
2017-05-21T11:18:36.381Z,22.9
2017-05-21T11:19:46.332Z,22.86
2017-05-21T11:20:55.337Z,22.86
2017-05-21T11:22:05.288Z,22.86
2017-05-21T11:23:15.558Z,22.9
2017-05-21T11:24:25.825Z,22.86
2017-05-21T11:25:36.095Z,22.88
2017-05-21T11:26:45.733Z,22.86
2017-05-21T11:27:55.061Z,22.86
2017-05-21T11:29:04.387Z,22.82
2017-05-21T11:30:14.660Z,22.82
2017-05-21T11:31:23.984Z,22.9
2017-05-21T11:32:34.259Z,22.79
2017-05-21T11:33:44.523Z,22.92
2017-05-21T11:34:54.167Z,22.82
2017-05-21T11:36:04.125Z,22.83
2017-05-21T11:37:14.078Z,22.83
2017-05-21T11:38:24.032Z,22.9
2017-05-21T11:39:34.301Z,22.86
2017-05-21T11:40:44.259Z,22.86
2017-05-21T11:41:53.892Z,22.86
2017-05-21T11:43:03.838Z,22.86
2017-05-21T11:44:14.110Z,22.85
2017-05-21T11:45:24.382Z,22.86
2017-05-21T11:46:34.653Z,22.85
2017-05-21T11:47:44.304Z,22.83
2017-05-21T11:48:54.256Z,22.85
2017-05-21T11:50:04.535Z,22.88
2017-05-21T11:51:14.487Z,22.86
2017-05-21T11:52:24.759Z,22.88
2017-05-21T11:53:35.024Z,22.8
2017-05-21T11:54:44.975Z,22.82
2017-05-21T11:55:54.300Z,22.85
2017-05-21T11:57:04.564Z,22.9
2017-05-21T11:58:14.201Z,22.8
2017-05-21T11:59:23.527Z,22.83
2017-05-21T12:00:33.166Z,22.85
2017-05-21T12:01:43.432Z,22.86
2017-05-21T12:02:53.699Z,22.8
2017-05-21T12:04:03.347Z,22.88
2017-05-21T12:05:13.310Z,22.86
2017-05-21T12:06:23.619Z,22.86
2017-05-21T12:07:33.897Z,22.85
2017-05-21T12:08:43.557Z,22.86
2017-05-21T12:09:53.828Z,22.85
2017-05-21T12:11:03.784Z,22.8
2017-05-21T12:12:14.057Z,22.88
2017-05-21T12:13:23.691Z,22.88
2017-05-21T12:14:33.964Z,22.86
2017-05-21T12:15:43.631Z,22.85
2017-05-21T12:16:53.572Z,22.85
2017-05-21T12:18:02.895Z,22.9
2017-05-21T12:19:13.181Z,22.9
2017-05-21T12:20:23.449Z,22.83
2017-05-21T12:21:32.768Z,22.83
2017-05-21T12:22:42.736Z,22.85
2017-05-21T12:23:52.371Z,22.86
2017-05-21T12:25:01.384Z,22.85
2017-05-21T12:26:10.710Z,22.83
2017-05-21T12:27:20.975Z,22.86
2017-05-21T12:28:30.930Z,22.9
2017-05-21T12:29:40.573Z,22.82
2017-05-21T12:30:50.866Z,22.83
2017-05-21T12:32:00.834Z,22.86
2017-05-21T12:33:10.477Z,22.85
2017-05-21T12:34:20.455Z,22.86
2017-05-21T12:35:30.100Z,22.9
2017-05-21T12:36:40.366Z,22.82
2017-05-21T12:37:50.004Z,22.91
2017-05-21T12:38:59.965Z,22.83
2017-05-21T12:40:09.918Z,22.83
2017-05-21T12:41:19.870Z,22.85
2017-05-21T12:42:29.817Z,22.86
2017-05-21T12:43:39.768Z,22.85
2017-05-21T12:44:50.034Z,22.88
2017-05-21T12:46:00.303Z,22.86
2017-05-21T12:47:10.571Z,22.83
2017-05-21T12:48:20.845Z,22.86
2017-05-21T12:49:30.499Z,22.82
2017-05-21T12:50:40.466Z,22.82
2017-05-21T12:51:50.427Z,22.86
2017-05-21T12:53:00.064Z,22.86
2017-05-21T12:54:10.014Z,22.86
2017-05-21T12:55:19.660Z,22.86
2017-05-21T12:56:28.990Z,22.85
2017-05-21T12:57:38.627Z,22.91
2017-05-21T12:58:48.887Z,22.86
2017-05-21T12:59:58.525Z,22.88
2017-05-21T13:01:08.801Z,22.92
2017-05-21T13:02:18.433Z,22.85
2017-05-21T13:03:28.702Z,22.88
2017-05-21T13:04:38.660Z,22.82
2017-05-21T13:05:48.922Z,22.88
2017-05-21T13:06:58.879Z,22.88
2017-05-21T13:08:08.515Z,22.82
2017-05-21T13:09:18.151Z,22.83
2017-05-21T13:10:27.797Z,22.9
2017-05-21T13:11:37.754Z,22.92
2017-05-21T13:12:47.388Z,22.85
2017-05-21T13:13:57.030Z,22.83
2017-05-21T13:15:06.669Z,22.86
2017-05-21T13:16:16.629Z,22.83
2017-05-21T13:17:26.895Z,22.9
2017-05-21T13:18:37.170Z,22.86
2017-05-21T13:19:47.436Z,22.86
2017-05-21T13:20:57.075Z,22.83
2017-05-21T13:22:06.773Z,22.82
2017-05-21T13:23:16.406Z,22.86
2017-05-21T13:24:25.724Z,22.85
2017-05-21T13:25:35.046Z,22.92
2017-05-21T13:26:44.053Z,22.88
2017-05-21T13:27:53.377Z,22.83
2017-05-21T13:29:03.330Z,22.86
2017-05-21T13:30:13.284Z,22.85
2017-05-21T13:31:23.245Z,22.8
2017-05-21T13:32:33.527Z,22.83
2017-05-21T13:33:43.180Z,22.88
2017-05-21T13:34:53.138Z,22.86
2017-05-21T13:36:02.465Z,22.9
2017-05-21T13:37:12.111Z,22.88
2017-05-21T13:38:22.071Z,22.98
2017-05-21T13:39:32.339Z,22.88
2017-05-21T13:40:41.977Z,22.85
2017-05-21T13:41:52.244Z,22.91
2017-05-21T13:43:01.878Z,22.9
2017-05-21T13:44:12.143Z,22.91
2017-05-21T13:45:21.461Z,22.92
2017-05-21T13:46:31.412Z,22.95
2017-05-21T13:47:41.479Z,22.86
2017-05-21T13:48:51.432Z,22.91
2017-05-21T13:50:01.384Z,22.9
2017-05-21T13:51:11.020Z,22.9
2017-05-21T13:52:21.302Z,22.91
2017-05-21T13:53:31.575Z,22.9
2017-05-21T13:54:41.214Z,22.98
2017-05-21T13:55:50.213Z,22.86
2017-05-21T13:57:00.170Z,22.86
2017-05-21T13:58:09.810Z,22.92
2017-05-21T13:59:19.458Z,22.86
2017-05-21T14:00:29.453Z,22.86
2017-05-21T14:01:39.091Z,22.88
2017-05-21T14:02:49.053Z,22.88
2017-05-21T14:03:59.010Z,22.85
2017-05-21T14:05:08.336Z,22.85
2017-05-21T14:06:17.672Z,22.88
2017-05-21T14:07:27.627Z,22.85
2017-05-21T14:08:37.582Z,22.88
2017-05-21T14:09:47.226Z,22.9
2017-05-21T14:10:57.496Z,22.86
2017-05-21T14:12:07.450Z,22.8
2017-05-21T14:13:17.718Z,22.86
2017-05-21T14:14:27.686Z,22.88
2017-05-21T14:15:37.011Z,22.88
2017-05-21T14:16:46.652Z,22.85
2017-05-21T14:17:56.974Z,22.9
2017-05-21T14:19:06.975Z,22.88
2017-05-21T14:20:16.614Z,22.9
2017-05-21T14:21:26.570Z,22.9
2017-05-21T14:22:36.527Z,22.85
2017-05-21T14:23:46.801Z,22.9
2017-05-21T14:24:57.063Z,22.8
2017-05-21T14:26:06.708Z,22.9
2017-05-21T14:27:16.974Z,22.91
2017-05-21T14:28:26.928Z,22.88
2017-05-21T14:29:37.201Z,22.94
2017-05-21T14:30:46.839Z,22.9
2017-05-21T14:31:56.181Z,22.9
2017-05-21T14:33:06.451Z,22.86
2017-05-21T14:34:16.402Z,22.94
2017-05-21T14:35:25.412Z,22.95
2017-05-21T14:36:34.449Z,22.92
2017-05-21T14:37:43.849Z,22.86
2017-05-21T14:38:54.134Z,23.01
2017-05-21T14:40:03.772Z,22.88
2017-05-21T14:41:14.038Z,22.86
2017-05-21T14:42:23.998Z,22.95
2017-05-21T14:43:33.626Z,22.9
2017-05-21T14:44:42.945Z,22.91
2017-05-21T14:45:51.948Z,22.86
2017-05-21T14:47:00.957Z,22.88
2017-05-21T14:48:09.649Z,22.95
2017-05-21T14:49:19.291Z,22.95
2017-05-21T14:50:29.565Z,22.95
2017-05-21T14:51:38.896Z,22.92
2017-05-21T14:52:48.544Z,22.9
2017-05-21T14:53:58.196Z,22.95
2017-05-21T14:55:08.145Z,22.95
2017-05-21T14:56:17.781Z,22.92
2017-05-21T14:57:28.061Z,22.88
2017-05-21T14:58:38.337Z,22.92
2017-05-21T14:59:47.979Z,22.88
2017-05-21T15:00:57.302Z,22.94
2017-05-21T15:02:07.570Z,22.98
2017-05-21T15:03:17.209Z,22.94
2017-05-21T15:04:27.165Z,22.92